Map

Track Data

SID SEASON NUMBER BASIN SUBBASIN NAME ISO_TIME NATURE LAT LON WMO_WIND WMO_PRES WMO_AGENCY TRACK_TYPE DIST2LAND LANDFALL IFLAG USA_AGENCY USA_ATCF_ID USA_LAT USA_LON USA_RECORD USA_STATUS USA_WIND USA_PRES USA_SSHS USA_R34_NE USA_R34_SE USA_R34_SW USA_R34_NW USA_R50_NE USA_R50_SE USA_R50_SW USA_R50_NW USA_R64_NE USA_R64_SE USA_R64_SW USA_R64_NW USA_POCI USA_ROCI USA_RMW USA_EYE TOKYO_LAT TOKYO_LON TOKYO_GRADE TOKYO_WIND TOKYO_PRES TOKYO_R50_DIR TOKYO_R50_LONG TOKYO_R50_SHORT TOKYO_R30_DIR TOKYO_R30_LONG TOKYO_R30_SHORT TOKYO_LAND CMA_LAT CMA_LON CMA_CAT CMA_WIND CMA_PRES HKO_LAT HKO_LON HKO_CAT HKO_WIND HKO_PRES NEWDELHI_LAT NEWDELHI_LON NEWDELHI_GRADE NEWDELHI_WIND NEWDELHI_PRES NEWDELHI_CI NEWDELHI_DP NEWDELHI_POCI REUNION_LAT REUNION_LON REUNION_TYPE REUNION_WIND REUNION_PRES REUNION_TNUM REUNION_CI REUNION_RMW REUNION_R34_NE REUNION_R34_SE REUNION_R34_SW REUNION_R34_NW REUNION_R50_NE REUNION_R50_SE REUNION_R50_SW REUNION_R50_NW REUNION_R64_NE REUNION_R64_SE REUNION_R64_SW REUNION_R64_NW BOM_LAT BOM_LON BOM_TYPE BOM_WIND BOM_PRES BOM_TNUM BOM_CI BOM_RMW BOM_R34_NE BOM_R34_SE BOM_R34_SW BOM_R34_NW BOM_R50_NE BOM_R50_SE BOM_R50_SW BOM_R50_NW BOM_R64_NE BOM_R64_SE BOM_R64_SW BOM_R64_NW BOM_ROCI BOM_POCI BOM_EYE BOM_POS_METHOD BOM_PRES_METHOD NADI_LAT NADI_LON NADI_CAT NADI_WIND NADI_PRES WELLINGTON_LAT WELLINGTON_LON WELLINGTON_WIND WELLINGTON_PRES DS824_LAT DS824_LON DS824_STAGE DS824_WIND DS824_PRES TD9636_LAT TD9636_LON TD9636_STAGE TD9636_WIND TD9636_PRES TD9635_LAT TD9635_LON TD9635_WIND TD9635_PRES TD9635_ROCI NEUMANN_LAT NEUMANN_LON NEUMANN_CLASS NEUMANN_WIND NEUMANN_PRES MLC_LAT MLC_LON MLC_CLASS MLC_WIND MLC_PRES USA_GUST BOM_GUST BOM_GUST_PER REUNION_GUST REUNION_GUST_PER USA_SEAHGT USA_SEARAD_NE USA_SEARAD_SE USA_SEARAD_SW USA_SEARAD_NW STORM_SPEED STORM_DIR
1909293N11143 1909 60 WP MM NOT_NAMED 1909-10-19 16:00:00 NR 10.8000 142.700 main 1476 1468 __________O___ -1 10.8000 142.700 7 7 278
1909293N11143 1909 60 WP MM NOT_NAMED 1909-10-19 18:00:00 NR 10.8321 142.465 main 1468 1461 __________P___ -1 10.8321 142.465 7 7 278
1909293N11143 1909 60 WP MM NOT_NAMED 1909-10-19 21:00:00 NR 10.8807 142.095 main 1465 1453 __________P___ -1 10.8807 142.095 7 8 277
1909293N11143 1909 60 WP MM NOT_NAMED 1909-10-20 00:00:00 NR 10.9304 141.678 main 1453 1446 __________P___ -1 10.9304 141.678 7 9 276
1909293N11143 1909 60 WP MM NOT_NAMED 1909-10-20 03:00:00 NR 10.9822 141.186 main 1446 1437 __________P___ -1 10.9822 141.186 7 10 276
1909293N11143 1909 60 WP MM NOT_NAMED 1909-10-20 04:00:00 NR 11.0000 141.000 main 1437 1420 __________O___ -1 11.0000 141.000 7 12 275
1909293N11143 1909 60 WP MM NOT_NAMED 1909-10-20 06:00:00 NR 11.0363 140.594 main 1420 1404 __________P___ -1 11.0363 140.594 7 13 275
1909293N11143 1909 60 WP MM NOT_NAMED 1909-10-20 09:00:00 NR 11.0907 139.922 main 1404 1380 __________P___ -1 11.0907 139.922 7 14 274
1909293N11143 1909 60 WP MM NOT_NAMED 1909-10-20 12:00:00 NR 11.1419 139.215 main 1380 1363 __________P___ -1 11.1419 139.215 7 14 274
1909293N11143 1909 60 WP MM NOT_NAMED 1909-10-20 15:00:00 NR 11.1868 138.521 main 1363 1342 __________P___ -1 11.1868 138.521 7 14 274
1909293N11143 1909 60 WP MM NOT_NAMED 1909-10-20 16:00:00 NR 11.2000 138.300 main 1342 1299 __________O___ -1 11.2000 138.300 7 12 273
1909293N11143 1909 60 WP MM NOT_NAMED 1909-10-20 18:00:00 NR 11.2192 137.907 main 1299 1235 __________P___ -1 11.2192 137.907 7 11 273
1909293N11143 1909 60 WP MM NOT_NAMED 1909-10-20 21:00:00 NR 11.2421 137.350 main 1235 1184 __________P___ -1 11.2421 137.350 7 11 272
1909293N11143 1909 60 WP MM NOT_NAMED 1909-10-21 00:00:00 NR 11.2634 136.814 main 1184 1130 __________P___ -1 11.2634 136.814 7 11 273
1909293N11143 1909 60 WP MM NOT_NAMED 1909-10-21 03:00:00 NR 11.2893 136.280 main 1130 1109 __________P___ -1 11.2893 136.280 7 11 273
1909293N11143 1909 60 WP MM NOT_NAMED 1909-10-21 04:00:00 NR 11.3000 136.100 main 1109 1066 __________O___ -1 11.3000 136.100 7 11 273
1909293N11143 1909 60 WP MM NOT_NAMED 1909-10-21 06:00:00 NR 11.3221 135.725 main 1066 1015 __________P___ -1 11.3221 135.725 7 11 274
1909293N11143 1909 60 WP MM NOT_NAMED 1909-10-21 09:00:00 NR 11.3617 135.156 main 1015 952 __________P___ -1 11.3617 135.156 7 11 275
1909293N11143 1909 60 WP MM NOT_NAMED 1909-10-21 12:00:00 NR 11.4117 134.580 main 952 891 __________P___ -1 11.4117 134.580 7 11 276
1909293N11143 1909 60 WP MM NOT_NAMED 1909-10-21 15:00:00 NR 11.4752 133.996 main 891 870 __________P___ -1 11.4752 133.996 7 12 277
1909293N11143 1909 60 WP MM NOT_NAMED 1909-10-21 16:00:00 NR 11.5000 133.800 main 870 829 __________O___ -1 11.5000 133.800 7 11 277
1909293N11143 1909 60 WP MM NOT_NAMED 1909-10-21 18:00:00 NR 11.5443 133.421 main 829 766 __________P___ -1 11.5443 133.421 7 11 278
1909293N11143 1909 60 WP MM NOT_NAMED 1909-10-21 21:00:00 NR 11.6233 132.847 main 766 713 __________P___ -1 11.6233 132.847 7 12 279
1909293N11143 1909 60 WP MM NOT_NAMED 1909-10-22 00:00:00 NR 11.7233 132.252 main 713 640 __________P___ -1 11.7233 132.252 7 12 281
1909293N11143 1909 60 WP MM NOT_NAMED 1909-10-22 03:00:00 NR 11.8505 131.621 main 640 618 __________P___ -1 11.8505 131.621 7 13 282
1909293N11143 1909 60 WP MM NOT_NAMED 1909-10-22 04:00:00 NR 11.9000 131.400 main 618 567 __________O___ -1 11.9000 131.400 7 14 283
1909293N11143 1909 60 WP MM NOT_NAMED 1909-10-22 06:00:00 NR 12.0049 130.947 main 567 498 __________P___ -1 12.0049 130.947 7 14 284
1909293N11143 1909 60 WP MM NOT_NAMED 1909-10-22 09:00:00 NR 12.1875 130.230 main 498 432 __________P___ -1 12.1875 130.230 7 15 285
1909293N11143 1909 60 WP MM NOT_NAMED 1909-10-22 12:00:00 NR 12.3950 129.471 main 432 350 __________P___ -1 12.3950 129.471 7 16 286
1909293N11143 1909 60 WP MM NOT_NAMED 1909-10-22 15:00:00 NR 12.6214 128.674 main 350 320 __________P___ -1 12.6214 128.674 7 16 286
1909293N11143 1909 60 WP MM NOT_NAMED 1909-10-22 16:00:00 NR 12.7000 128.400 main 320 261 __________O___ -1 12.7000 128.400 7 17 286
1909293N11143 1909 60 WP MM NOT_NAMED 1909-10-22 18:00:00 NR 12.8528 127.829 main 261 182 __________P___ -1 12.8528 127.829 7 18 286
1909293N11143 1909 60 WP MM NOT_NAMED 1909-10-22 21:00:00 NR 13.0945 126.942 main 182 124 __________P___ -1 13.0945 126.942 7 18 286
1909293N11143 1909 60 WP MM NOT_NAMED 1909-10-23 00:00:00 NR 13.3483 126.046 main 124 87 __________P___ -1 13.3483 126.046 7 18 287
1909293N11143 1909 60 WP MM NOT_NAMED 1909-10-23 03:00:00 NR 13.6109 125.178 main 87 54 __________P___ -1 13.6109 125.178 7 18 288
1909293N11143 1909 60 WP MM NOT_NAMED 1909-10-23 04:00:00 NR 13.7000 124.900 main 54 0 __________O___ -1 13.7000 124.900 4 16 289
1909293N11143 1909 60 WP MM NOT_NAMED 1909-10-23 06:00:00 NR 13.8685 124.395 main 0 0 __________P___ -1 13.8685 124.395 4 15 290
1909293N11143 1909 60 WP MM NOT_NAMED 1909-10-23 09:00:00 NR 14.1282 123.675 main 22 22 __________P___ -1 14.1282 123.675 4 15 291
1909293N11143 1909 60 WP MM NOT_NAMED 1909-10-23 12:00:00 NR 14.4020 122.972 main 24 22 __________P___ -1 14.4020 122.972 4 15 292
1909293N11143 1909 60 WP MM NOT_NAMED 1909-10-23 15:00:00 NR 14.6963 122.251 main 57 34 __________P___ -1 14.6963 122.251 4 15 293
1909293N11143 1909 60 WP MM NOT_NAMED 1909-10-23 16:00:00 NR 14.8000 122.000 main 34 0 __________O___ -1 14.8000 122.000 4 17 292
1909293N11143 1909 60 WP MM NOT_NAMED 1909-10-23 18:00:00 NR 15.0192 121.436 main 0 0 __________P___ -1 15.0192 121.436 4 18 292
1909293N11143 1909 60 WP MM NOT_NAMED 1909-10-23 21:00:00 NR 15.3671 120.558 main 0 0 __________P___ -1 15.3671 120.558 4 18 293
1909293N11143 1909 60 WP MM NOT_NAMED 1909-10-24 00:00:00 NR 15.7259 119.682 main 21 24 __________P___ -1 15.7259 119.682 4 18 294
1909293N11143 1909 60 WP MM NOT_NAMED 1909-10-24 03:00:00 NR 16.0833 118.856 main 86 96 __________P___ -1 16.0833 118.856 4 17 294
1909293N11143 1909 60 WP MM NOT_NAMED 1909-10-24 04:00:00 NR 16.2000 118.600 main 119 119 __________O___ -1 16.2000 118.600 4 15 295
1909293N11143 1909 60 WP MM NOT_NAMED 1909-10-24 06:00:00 NR 16.4107 118.139 main 176 176 __________P___ -1 16.4107 118.139 4 14 297
1909293N11143 1909 60 WP MM NOT_NAMED 1909-10-24 09:00:00 NR 16.7211 117.512 main 247 247 __________P___ -1 16.7211 117.512 4 13 299
1909293N11143 1909 60 WP MM NOT_NAMED 1909-10-24 12:00:00 NR 17.0388 116.936 main 318 321 __________P___ -1 17.0388 116.936 4 13 301
1909293N11143 1909 60 WP MM NOT_NAMED 1909-10-24 15:00:00 NR 17.3790 116.384 main 382 382 __________P___ -1 17.3790 116.384 4 13 303
1909293N11143 1909 60 WP MM NOT_NAMED 1909-10-24 16:00:00 NR 17.5000 116.200 main 405 405 __________O___ -1 17.5000 116.200 4 14 304
1909293N11143 1909 60 WP MM NOT_NAMED 1909-10-24 18:00:00 NR 17.7657 115.790 main 457 457 __________P___ -1 17.7657 115.790 4 14 305
1909293N11143 1909 60 WP MM NOT_NAMED 1909-10-24 21:00:00 NR 18.1898 115.181 main 468 394 __________P___ -1 18.1898 115.181 4 14 307
1909293N11143 1909 60 WP MM NOT_NAMED 1909-10-25 00:00:00 NR 18.6276 114.599 main 394 330 __________P___ -1 18.6276 114.599 4 14 309
1909293N11143 1909 60 WP MM NOT_NAMED 1909-10-25 03:00:00 NR 19.0602 114.064 main 330 307 __________P___ -1 19.0602 114.064 4 13 311
1909293N11143 1909 60 WP MM NOT_NAMED 1909-10-25 04:00:00 NR 19.2000 113.900 main 307 273 __________O___ -1 19.2000 113.900 4 12 311
1909293N11143 1909 60 WP MM NOT_NAMED 1909-10-25 06:00:00 NR 19.4398 113.600 main 273 230 __________P___ -1 19.4398 113.600 4 11 312
1909293N11143 1909 60 WP MM NOT_NAMED 1909-10-25 09:00:00 NR 19.7869 113.202 main 231 186 __________P___ -1 19.7869 113.202 4 10 315
1909293N11143 1909 60 WP MM NOT_NAMED 1909-10-25 12:00:00 NR 20.1468 112.846 main 186 124 __________P___ -1 20.1468 112.846 4 10 320
1909293N11143 1909 60 WP MM NOT_NAMED 1909-10-25 15:00:00 NR 20.5504 112.511 main 124 112 __________P___ -1 20.5504 112.511 4 10 323
1909293N11143 1909 60 WP MM NOT_NAMED 1909-10-25 16:00:00 NR 20.7000 112.400 main 112 78 __________O___ -1 20.7000 112.400 4 11 326
1909293N11143 1909 60 WP MM NOT_NAMED 1909-10-25 18:00:00 NR 21.0261 112.175 main 78 0 __________P___ -1 21.0261 112.175 4 12 329
1909293N11143 1909 60 WP MM NOT_NAMED 1909-10-25 21:00:00 NR 21.5720 111.830 main 0 0 __________P___ -1 21.5720 111.830 4 13 330
1909293N11143 1909 60 WP MM NOT_NAMED 1909-10-26 00:00:00 NR 22.1672 111.478 main 0 0 __________P___ -1 22.1672 111.478 4 14 332
1909293N11143 1909 60 WP MM NOT_NAMED 1909-10-26 03:00:00 NR 22.7900 111.120 main 0 0 __________P___ -1 22.7900 111.120 4 14 332
1909293N11143 1909 60 WP MM NOT_NAMED 1909-10-26 04:00:00 NR 23.0000 111.000 main 0 __________O___ -1 23.0000 111.000 7 14 332

Digital Typhoon Data and Search

About IBTrACS Database

This database is a web-friendly format of International Best Track Archive for Climate Stewardship (IBTrACS), a global best track data archive curated by NOAA dating back to 1842.

Updated: 2021-10-19